sensor_id;sensor_type;location;lat;lon;timestamp;pressure;altitude;pressure_sealevel;temperature;humidity
498;BME280;39559;48.630;9.162;2023-06-22T00:00:32;97489.06;;;18.37;100.00
498;BME280;39559;48.630;9.162;2023-06-22T00:02:58;97489.66;;;18.40;100.00
498;BME280;39559;48.630;9.162;2023-06-22T00:05:23;97486.66;;;18.10;100.00
498;BME280;39559;48.630;9.162;2023-06-22T00:07:49;97488.41;;;17.98;100.00
498;BME280;39559;48.630;9.162;2023-06-22T00:12:14;97483.59;;;17.92;100.00
498;BME280;39559;48.630;9.162;2023-06-22T00:14:39;97485.44;;;18.27;100.00
498;BME280;39559;48.630;9.162;2023-06-22T00:17:05;97494.28;;;18.26;100.00
498;BME280;39559;48.630;9.162;2023-06-22T00:19:31;97491.44;;;18.05;100.00
498;BME280;39559;48.630;9.162;2023-06-22T00:21:57;97494.50;;;17.98;100.00
498;BME280;39559;48.630;9.162;2023-06-22T00:24:25;97503.38;;;17.84;100.00
498;BME280;39559;48.630;9.162;2023-06-22T00:26:51;97504.25;;;17.72;100.00
498;BME280;39559;48.630;9.162;2023-06-22T00:29:16;97507.28;;;17.66;100.00
498;BME280;39559;48.630;9.162;2023-06-22T00:31:43;97506.44;;;17.65;100.00
498;BME280;39559;48.630;9.162;2023-06-22T00:36:09;97480.72;;;17.71;100.00
498;BME280;39559;48.630;9.162;2023-06-22T00:38:38;97470.19;;;17.71;100.00
498;BME280;39559;48.630;9.162;2023-06-22T00:41:05;97478.22;;;17.56;100.00
498;BME280;39559;48.630;9.162;2023-06-22T00:43:31;97482.13;;;17.51;100.00
498;BME280;39559;48.630;9.162;2023-06-22T00:45:56;97476.34;;;17.45;100.00
498;BME280;39559;48.630;9.162;2023-06-22T00:48:22;97485.69;;;17.50;100.00
498;BME280;39559;48.630;9.162;2023-06-22T00:50:48;97491.34;;;17.56;100.00
498;BME280;39559;48.630;9.162;2023-06-22T00:53:16;97489.97;;;17.63;100.00
498;BME280;39559;48.630;9.162;2023-06-22T00:55:44;97493.97;;;17.56;100.00
498;BME280;39559;48.630;9.162;2023-06-22T01:00:05;97517.44;;;17.46;100.00
498;BME280;39559;48.630;9.162;2023-06-22T01:02:35;97503.03;;;17.52;100.00
498;BME280;39559;48.630;9.162;2023-06-22T01:05:02;97505.13;;;17.84;100.00
498;BME280;39559;48.630;9.162;2023-06-22T01:07:34;97517.91;;;17.64;100.00
498;BME280;39559;48.630;9.162;2023-06-22T01:10:10;97527.81;;;17.35;100.00
498;BME280;39559;48.630;9.162;2023-06-22T01:12:44;97528.47;;;17.13;100.00
498;BME280;39559;48.630;9.162;2023-06-22T01:15:16;97512.41;;;17.31;100.00
498;BME280;39559;48.630;9.162;2023-06-22T01:17:45;97504.44;;;17.32;100.00
498;BME280;39559;48.630;9.162;2023-06-22T01:20:15;97526.78;;;17.25;100.00
498;BME280;39559;48.630;9.162;2023-06-22T01:24:15;97533.59;;;17.27;100.00
498;BME280;39559;48.630;9.162;2023-06-22T01:29:33;97492.94;;;17.46;100.00
498;BME280;39559;48.630;9.162;2023-06-22T01:32:02;97501.47;;;17.37;100.00
498;BME280;39559;48.630;9.162;2023-06-22T01:34:30;97507.47;;;17.26;100.00
498;BME280;39559;48.630;9.162;2023-06-22T01:36:57;97504.75;;;17.02;100.00
498;BME280;39559;48.630;9.162;2023-06-22T01:39:24;97482.50;;;16.95;100.00
498;BME280;39559;48.630;9.162;2023-06-22T01:41:51;97487.13;;;17.04;100.00
498;BME280;39559;48.630;9.162;2023-06-22T01:44:17;97498.56;;;17.03;100.00
498;BME280;39559;48.630;9.162;2023-06-22T01:47:54;97503.81;;;17.03;100.00
498;BME280;39559;48.630;9.162;2023-06-22T01:50:20;97501.59;;;17.10;100.00
498;BME280;39559;48.630;9.162;2023-06-22T01:52:46;97492.78;;;17.23;100.00
498;BME280;39559;48.630;9.162;2023-06-22T01:55:12;97492.56;;;17.39;100.00
498;BME280;39559;48.630;9.162;2023-06-22T01:57:37;97496.66;;;17.18;100.00
498;BME280;39559;48.630;9.162;2023-06-22T02:00:07;97495.09;;;17.02;100.00
498;BME280;39559;48.630;9.162;2023-06-22T02:02:40;97499.16;;;16.81;100.00
498;BME280;39559;48.630;9.162;2023-06-22T02:05:12;97508.38;;;16.74;100.00
498;BME280;39559;48.630;9.162;2023-06-22T02:07:46;97509.75;;;16.79;100.00
498;BME280;39559;48.630;9.162;2023-06-22T02:11:50;97498.66;;;17.01;100.00
498;BME280;39559;48.630;9.162;2023-06-22T02:14:20;97495.22;;;17.01;100.00
498;BME280;39559;48.630;9.162;2023-06-22T02:16:47;97509.84;;;16.78;100.00
498;BME280;39559;48.630;9.162;2023-06-22T02:19:12;97513.72;;;16.59;100.00
498;BME280;39559;48.630;9.162;2023-06-22T02:21:41;97511.91;;;16.60;100.00
498;BME280;39559;48.630;9.162;2023-06-22T02:24:07;97501.00;;;16.53;100.00
498;BME280;39559;48.630;9.162;2023-06-22T02:26:33;97496.50;;;16.68;100.00
498;BME280;39559;48.630;9.162;2023-06-22T02:28:59;97494.41;;;16.60;100.00
498;BME280;39559;48.630;9.162;2023-06-22T02:31:25;97495.66;;;16.55;100.00
498;BME280;39559;48.630;9.162;2023-06-22T02:35:43;97503.13;;;16.61;100.00
498;BME280;39559;48.630;9.162;2023-06-22T02:38:13;97499.03;;;16.82;100.00
498;BME280;39559;48.630;9.162;2023-06-22T02:40:39;97492.78;;;16.85;100.00
498;BME280;39559;48.630;9.162;2023-06-22T02:43:05;97487.59;;;16.58;100.00
498;BME280;39559;48.630;9.162;2023-06-22T02:45:31;97492.31;;;16.53;100.00
498;BME280;39559;48.630;9.162;2023-06-22T02:47:56;97489.78;;;16.51;100.00
498;BME280;39559;48.630;9.162;2023-06-22T02:50:22;97475.41;;;16.57;100.00
498;BME280;39559;48.630;9.162;2023-06-22T02:52:47;97476.16;;;16.59;100.00
498;BME280;39559;48.630;9.162;2023-06-22T02:55:13;97474.75;;;16.40;100.00
498;BME280;39559;48.630;9.162;2023-06-22T02:59:37;97476.09;;;16.33;100.00
498;BME280;39559;48.630;9.162;2023-06-22T03:02:06;97473.59;;;16.44;100.00
498;BME280;39559;48.630;9.162;2023-06-22T03:04:32;97458.22;;;16.65;100.00
498;BME280;39559;48.630;9.162;2023-06-22T03:06:57;97458.66;;;16.46;100.00
498;BME280;39559;48.630;9.162;2023-06-22T03:09:27;97447.63;;;16.41;100.00
498;BME280;39559;48.630;9.162;2023-06-22T03:11:56;97454.09;;;16.23;100.00
498;BME280;39559;48.630;9.162;2023-06-22T03:14:22;97454.09;;;16.23;100.00
498;BME280;39559;48.630;9.162;2023-06-22T03:16:47;97455.94;;;16.21;100.00
498;BME280;39559;48.630;9.162;2023-06-22T03:19:13;97457.81;;;16.19;100.00
498;BME280;39559;48.630;9.162;2023-06-22T03:23:33;97463.09;;;16.31;100.00
498;BME280;39559;48.630;9.162;2023-06-22T03:25:59;97463.81;;;16.21;100.00
498;BME280;39559;48.630;9.162;2023-06-22T03:28:24;97464.84;;;16.18;100.00
498;BME280;39559;48.630;9.162;2023-06-22T03:30:50;97467.94;;;16.25;100.00
498;BME280;39559;48.630;9.162;2023-06-22T03:33:15;97466.47;;;16.34;100.00
498;BME280;39559;48.630;9.162;2023-06-22T03:35:41;97456.41;;;16.40;100.00
498;BME280;39559;48.630;9.162;2023-06-22T03:38:07;97449.72;;;16.62;100.00
498;BME280;39559;48.630;9.162;2023-06-22T03:40:33;97447.19;;;16.35;100.00
498;BME280;39559;48.630;9.162;2023-06-22T03:42:58;97451.03;;;16.16;100.00
498;BME280;39559;48.630;9.162;2023-06-22T03:47:29;97456.34;;;16.15;100.00
498;BME280;39559;48.630;9.162;2023-06-22T03:49:54;97445.69;;;16.18;100.00
498;BME280;39559;48.630;9.162;2023-06-22T03:52:21;97450.09;;;16.17;100.00
498;BME280;39559;48.630;9.162;2023-06-22T03:54:47;97451.47;;;16.23;100.00
498;BME280;39559;48.630;9.162;2023-06-22T03:57:13;97450.44;;;16.38;100.00
498;BME280;39559;48.630;9.162;2023-06-22T03:59:38;97444.75;;;16.31;100.00
498;BME280;39559;48.630;9.162;2023-06-22T04:02:04;97448.31;;;16.18;100.00
498;BME280;39559;48.630;9.162;2023-06-22T04:04:30;97447.75;;;16.12;100.00
498;BME280;39559;48.630;9.162;2023-06-22T04:06:55;97453.00;;;16.12;100.00
498;BME280;39559;48.630;9.162;2023-06-22T04:11:24;97440.44;;;16.18;100.00
498;BME280;39559;48.630;9.162;2023-06-22T04:13:49;97439.81;;;16.14;100.00
498;BME280;39559;48.630;9.162;2023-06-22T04:16:16;97430.16;;;16.15;100.00
498;BME280;39559;48.630;9.162;2023-06-22T04:18:42;97441.75;;;16.38;100.00
498;BME280;39559;48.630;9.162;2023-06-22T04:21:07;97437.75;;;16.32;100.00
498;BME280;39559;48.630;9.162;2023-06-22T04:23:33;97430.91;;;16.29;100.00
498;BME280;39559;48.630;9.162;2023-06-22T04:25:59;97438.78;;;16.42;100.00
498;BME280;39559;48.630;9.162;2023-06-22T04:28:24;97435.44;;;16.40;100.00
498;BME280;39559;48.630;9.162;2023-06-22T04:30:50;97435.06;;;16.46;100.00
498;BME280;39559;48.630;9.162;2023-06-22T04:35:19;97425.19;;;16.37;100.00
498;BME280;39559;48.630;9.162;2023-06-22T04:37:45;97418.97;;;16.38;100.00
498;BME280;39559;48.630;9.162;2023-06-22T04:40:11;97424.66;;;16.45;100.00
498;BME280;39559;48.630;9.162;2023-06-22T04:42:40;97418.16;;;16.50;100.00
498;BME280;39559;48.630;9.162;2023-06-22T04:45:06;97414.38;;;16.80;100.00
498;BME280;39559;48.630;9.162;2023-06-22T04:47:31;97408.41;;;16.65;100.00
498;BME280;39559;48.630;9.162;2023-06-22T04:49:57;97415.56;;;16.89;100.00
498;BME280;39559;48.630;9.162;2023-06-22T04:52:22;97415.53;;;16.76;100.00
498;BME280;39559;48.630;9.162;2023-06-22T04:54:50;97417.84;;;16.68;100.00
498;BME280;39559;48.630;9.162;2023-06-22T04:59:15;97408.19;;;16.81;100.00
498;BME280;39559;48.630;9.162;2023-06-22T05:01:40;97408.97;;;16.83;100.00
498;BME280;39559;48.630;9.162;2023-06-22T05:04:06;97408.63;;;16.88;100.00
498;BME280;39559;48.630;9.162;2023-06-22T05:09:37;97400.00;;;16.99;100.00
498;BME280;39559;48.630;9.162;2023-06-22T05:12:03;97395.81;;;17.09;100.00
498;BME280;39559;48.630;9.162;2023-06-22T05:14:30;97390.72;;;17.19;100.00
498;BME280;39559;48.630;9.162;2023-06-22T05:16:56;97395.13;;;17.31;100.00
498;BME280;39559;48.630;9.162;2023-06-22T05:19:29;97395.06;;;17.44;100.00
498;BME280;39559;48.630;9.162;2023-06-22T05:23:10;97385.44;;;17.44;100.00
498;BME280;39559;48.630;9.162;2023-06-22T05:25:37;97384.16;;;17.50;100.00
498;BME280;39559;48.630;9.162;2023-06-22T05:28:04;97387.16;;;17.57;100.00
498;BME280;39559;48.630;9.162;2023-06-22T05:30:39;97382.19;;;17.65;100.00
498;BME280;39559;48.630;9.162;2023-06-22T05:33:04;97374.69;;;17.72;100.00
498;BME280;39559;48.630;9.162;2023-06-22T05:35:30;97377.50;;;17.81;100.00
498;BME280;39559;48.630;9.162;2023-06-22T05:37:56;97374.47;;;17.99;100.00
498;BME280;39559;48.630;9.162;2023-06-22T05:40:22;97378.31;;;18.06;100.00
498;BME280;39559;48.630;9.162;2023-06-22T05:42:47;97379.41;;;18.15;100.00
498;BME280;39559;48.630;9.162;2023-06-22T05:47:06;97374.22;;;18.37;100.00
498;BME280;39559;48.630;9.162;2023-06-22T05:49:32;97384.75;;;18.60;100.00
498;BME280;39559;48.630;9.162;2023-06-22T05:51:59;97382.63;;;18.65;100.00
498;BME280;39559;48.630;9.162;2023-06-22T05:54:27;97376.66;;;18.74;100.00
498;BME280;39559;48.630;9.162;2023-06-22T05:56:58;97373.81;;;18.89;100.00
498;BME280;39559;48.630;9.162;2023-06-22T05:59:25;97367.81;;;18.98;100.00
498;BME280;39559;48.630;9.162;2023-06-22T06:01:51;97367.81;;;19.09;100.00
498;BME280;39559;48.630;9.162;2023-06-22T06:04:19;97374.25;;;19.16;100.00
498;BME280;39559;48.630;9.162;2023-06-22T06:06:45;97368.66;;;19.21;100.00
498;BME280;39559;48.630;9.162;2023-06-22T06:10:59;97364.06;;;19.34;100.00
498;BME280;39559;48.630;9.162;2023-06-22T06:13:25;97375.78;;;19.42;100.00
498;BME280;39559;48.630;9.162;2023-06-22T06:15:50;97370.88;;;19.37;100.00
498;BME280;39559;48.630;9.162;2023-06-22T06:18:17;97365.91;;;19.55;100.00
498;BME280;39559;48.630;9.162;2023-06-22T06:20:42;97372.47;;;19.72;100.00
498;BME280;39559;48.630;9.162;2023-06-22T06:23:08;97376.28;;;19.79;100.00
498;BME280;39559;48.630;9.162;2023-06-22T06:25:34;97378.88;;;19.90;100.00
498;BME280;39559;48.630;9.162;2023-06-22T06:27:59;97368.88;;;20.05;100.00
498;BME280;39559;48.630;9.162;2023-06-22T06:30:25;97371.56;;;20.15;100.00
498;BME280;39559;48.630;9.162;2023-06-22T06:34:57;97373.38;;;20.36;100.00
498;BME280;39559;48.630;9.162;2023-06-22T06:37:23;97368.69;;;20.39;100.00
498;BME280;39559;48.630;9.162;2023-06-22T06:39:50;97365.44;;;20.57;100.00
498;BME280;39559;48.630;9.162;2023-06-22T06:42:16;97370.00;;;20.55;100.00
498;BME280;39559;48.630;9.162;2023-06-22T06:44:41;97373.63;;;20.75;100.00
498;BME280;39559;48.630;9.162;2023-06-22T06:47:07;97366.94;;;20.70;100.00
498;BME280;39559;48.630;9.162;2023-06-22T06:49:33;97363.16;;;20.94;100.00
498;BME280;39559;48.630;9.162;2023-06-22T06:51:59;97370.59;;;21.29;100.00
498;BME280;39559;48.630;9.162;2023-06-22T06:54:24;97370.34;;;21.23;100.00
498;BME280;39559;48.630;9.162;2023-06-22T06:58:53;97361.84;;;21.29;100.00
498;BME280;39559;48.630;9.162;2023-06-22T07:01:19;97359.34;;;21.37;100.00
498;BME280;39559;48.630;9.162;2023-06-22T07:03:45;97369.13;;;21.46;100.00
498;BME280;39559;48.630;9.162;2023-06-22T07:06:10;97362.06;;;21.57;100.00
498;BME280;39559;48.630;9.162;2023-06-22T07:08:42;97369.03;;;21.77;100.00
498;BME280;39559;48.630;9.162;2023-06-22T07:11:08;97356.25;;;21.92;100.00
498;BME280;39559;48.630;9.162;2023-06-22T07:13:34;97359.44;;;21.96;100.00
498;BME280;39559;48.630;9.162;2023-06-22T07:15:59;97351.78;;;21.93;100.00
498;BME280;39559;48.630;9.162;2023-06-22T07:18:25;97356.25;;;21.92;100.00
498;BME280;39559;48.630;9.162;2023-06-22T07:22:49;97345.63;;;22.21;100.00
498;BME280;39559;48.630;9.162;2023-06-22T07:25:14;97342.03;;;22.32;100.00
498;BME280;39559;48.630;9.162;2023-06-22T07:27:56;97329.19;;;22.47;100.00
498;BME280;39559;48.630;9.162;2023-06-22T07:30:22;97326.34;;;22.58;100.00
498;BME280;39559;48.630;9.162;2023-06-22T07:32:48;97318.31;;;22.40;100.00
498;BME280;39559;48.630;9.162;2023-06-22T07:35:14;97318.41;;;22.58;100.00
498;BME280;39559;48.630;9.162;2023-06-22T07:37:41;97310.00;;;22.73;100.00
498;BME280;39559;48.630;9.162;2023-06-22T07:40:08;97310.97;;;22.72;100.00
498;BME280;39559;48.630;9.162;2023-06-22T07:42:33;97285.88;;;22.76;100.00
498;BME280;39559;48.630;9.162;2023-06-22T07:46:44;97294.44;;;22.88;100.00
498;BME280;39559;48.630;9.162;2023-06-22T07:49:09;97302.19;;;22.99;100.00
498;BME280;39559;48.630;9.162;2023-06-22T07:51:35;97290.91;;;23.07;100.00
498;BME280;39559;48.630;9.162;2023-06-22T07:54:01;97285.06;;;23.21;100.00
498;BME280;39559;48.630;9.162;2023-06-22T07:56:26;97293.28;;;23.46;100.00
498;BME280;39559;48.630;9.162;2023-06-22T07:58:52;97294.88;;;23.56;100.00
498;BME280;39559;48.630;9.162;2023-06-22T08:01:19;97290.63;;;23.64;100.00
498;BME280;39559;48.630;9.162;2023-06-22T08:03:48;97299.16;;;23.75;100.00
498;BME280;39559;48.630;9.162;2023-06-22T08:06:18;97307.00;;;23.95;100.00
498;BME280;39559;48.630;9.162;2023-06-22T08:10:37;97313.84;;;24.24;100.00
498;BME280;39559;48.630;9.162;2023-06-22T08:13:03;97330.31;;;24.36;100.00
498;BME280;39559;48.630;9.162;2023-06-22T08:15:29;97326.38;;;24.40;100.00
498;BME280;39559;48.630;9.162;2023-06-22T08:17:54;97342.13;;;24.41;100.00
498;BME280;39559;48.630;9.162;2023-06-22T08:20:20;97336.75;;;24.51;100.00
498;BME280;39559;48.630;9.162;2023-06-22T08:22:46;97336.22;;;24.47;93.13
498;BME280;39559;48.630;9.162;2023-06-22T08:25:11;97345.19;;;24.73;95.72
498;BME280;39559;48.630;9.162;2023-06-22T08:27:38;97351.84;;;24.77;94.56
498;BME280;39559;48.630;9.162;2023-06-22T08:30:04;97361.38;;;24.87;95.01
498;BME280;39559;48.630;9.162;2023-06-22T08:34:38;97361.66;;;24.84;95.05
498;BME280;39559;48.630;9.162;2023-06-22T08:37:08;97357.88;;;24.61;97.39
498;BME280;39559;48.630;9.162;2023-06-22T08:39:34;97357.81;;;24.70;100.00
498;BME280;39559;48.630;9.162;2023-06-22T08:42:00;97366.47;;;24.81;98.24
498;BME280;39559;48.630;9.162;2023-06-22T08:44:25;97360.41;;;24.97;99.95
498;BME280;39559;48.630;9.162;2023-06-22T08:46:51;97357.75;;;25.31;94.98
498;BME280;39559;48.630;9.162;2023-06-22T08:49:16;97355.81;;;25.66;92.46
498;BME280;39559;48.630;9.162;2023-06-22T08:51:42;97360.28;;;25.57;91.91
498;BME280;39559;48.630;9.162;2023-06-22T08:54:09;97357.31;;;25.60;88.70
498;BME280;39559;48.630;9.162;2023-06-22T08:58:31;97346.34;;;25.47;90.49
498;BME280;39559;48.630;9.162;2023-06-22T09:00:56;97344.53;;;25.72;96.12
498;BME280;39559;48.630;9.162;2023-06-22T09:03:29;97336.75;;;25.87;88.26
498;BME280;39559;48.630;9.162;2023-06-22T09:05:56;97342.72;;;25.73;88.83
498;BME280;39559;48.630;9.162;2023-06-22T09:08:22;97337.94;;;25.93;87.83
498;BME280;39559;48.630;9.162;2023-06-22T09:10:49;97347.66;;;25.59;86.29
498;BME280;39559;48.630;9.162;2023-06-22T09:13:15;97347.84;;;25.66;89.34
498;BME280;39559;48.630;9.162;2023-06-22T09:15:40;97355.56;;;26.02;88.69
498;BME280;39559;48.630;9.162;2023-06-22T09:18:17;97353.06;;;26.00;92.90
498;BME280;39559;48.630;9.162;2023-06-22T09:22:30;97333.38;;;26.67;86.48
498;BME280;39559;48.630;9.162;2023-06-22T09:25:06;97332.97;;;26.87;85.63
498;BME280;39559;48.630;9.162;2023-06-22T09:27:34;97314.41;;;26.62;88.37
498;BME280;39559;48.630;9.162;2023-06-22T09:30:00;97311.06;;;26.68;85.92
498;BME280;39559;48.630;9.162;2023-06-22T09:32:27;97316.13;;;26.94;82.86
498;BME280;39559;48.630;9.162;2023-06-22T09:34:54;97316.31;;;26.85;79.72
498;BME280;39559;48.630;9.162;2023-06-22T09:37:21;97300.00;;;26.88;84.83
498;BME280;39559;48.630;9.162;2023-06-22T09:39:48;97299.28;;;26.94;80.48
498;BME280;39559;48.630;9.162;2023-06-22T09:42:16;97291.28;;;27.02;80.27
498;BME280;39559;48.630;9.162;2023-06-22T09:46:25;97294.19;;;26.84;79.20
498;BME280;39559;48.630;9.162;2023-06-22T09:48:52;97310.00;;;26.86;80.92
498;BME280;39559;48.630;9.162;2023-06-22T09:51:19;97301.03;;;27.18;81.51
498;BME280;39559;48.630;9.162;2023-06-22T09:53:47;97304.88;;;27.70;81.33
498;BME280;39559;48.630;9.162;2023-06-22T09:56:14;97298.59;;;27.39;80.80
498;BME280;39559;48.630;9.162;2023-06-22T09:58:46;97274.84;;;27.22;79.77
498;BME280;39559;48.630;9.162;2023-06-22T10:01:17;97270.22;;;27.15;80.61
498;BME280;39559;48.630;9.162;2023-06-22T10:03:44;97269.13;;;27.33;76.90
498;BME280;39559;48.630;9.162;2023-06-22T10:06:10;97272.16;;;27.30;78.56
498;BME280;39559;48.630;9.162;2023-06-22T10:10:15;97266.91;;;26.74;80.82
498;BME280;39559;48.630;9.162;2023-06-22T10:12:48;97254.47;;;26.97;83.17
498;BME280;39559;48.630;9.162;2023-06-22T10:15:20;97253.78;;;27.35;82.58
498;BME280;39559;48.630;9.162;2023-06-22T10:17:52;97248.63;;;27.02;82.51
498;BME280;39559;48.630;9.162;2023-06-22T10:20:24;97248.63;;;27.02;86.75
498;BME280;39559;48.630;9.162;2023-06-22T10:22:51;97244.41;;;27.39;88.40
498;BME280;39559;48.630;9.162;2023-06-22T10:25:17;97235.44;;;27.40;81.51
498;BME280;39559;48.630;9.162;2023-06-22T10:27:43;97236.31;;;27.01;86.00
498;BME280;39559;48.630;9.162;2023-06-22T10:30:11;97233.53;;;27.17;85.59
498;BME280;39559;48.630;9.162;2023-06-22T10:34:09;97239.03;;;27.16;87.05
498;BME280;39559;48.630;9.162;2023-06-22T10:36:37;97244.66;;;27.29;89.63
498;BME280;39559;48.630;9.162;2023-06-22T10:39:03;97231.97;;;27.31;86.86
498;BME280;39559;48.630;9.162;2023-06-22T10:41:29;97226.34;;;27.49;90.53
498;BME280;39559;48.630;9.162;2023-06-22T10:43:57;97227.34;;;27.71;83.68
498;BME280;39559;48.630;9.162;2023-06-22T10:49:29;97220.94;;;27.57;81.31
498;BME280;39559;48.630;9.162;2023-06-22T10:51:57;97228.72;;;27.67;80.41
498;BME280;39559;48.630;9.162;2023-06-22T10:54:23;97221.59;;;27.60;77.43
498;BME280;39559;48.630;9.162;2023-06-22T10:58:05;97214.09;;;27.40;83.20
498;BME280;39559;48.630;9.162;2023-06-22T11:00:30;97217.94;;;27.75;80.79
498;BME280;39559;48.630;9.162;2023-06-22T11:02:56;97214.47;;;27.75;79.97
498;BME280;39559;48.630;9.162;2023-06-22T11:05:23;97222.34;;;27.91;79.58
498;BME280;39559;48.630;9.162;2023-06-22T11:07:49;97215.06;;;27.62;84.17
498;BME280;39559;48.630;9.162;2023-06-22T11:10:15;97221.38;;;28.07;82.20
498;BME280;39559;48.630;9.162;2023-06-22T11:12:40;97215.44;;;27.97;82.33
498;BME280;39559;48.630;9.162;2023-06-22T11:15:11;97238.22;;;28.38;77.60
498;BME280;39559;48.630;9.162;2023-06-22T11:17:37;97236.34;;;27.93;82.25
498;BME280;39559;48.630;9.162;2023-06-22T11:21:57;97230.19;;;28.23;77.44
498;BME280;39559;48.630;9.162;2023-06-22T11:24:22;97226.41;;;28.47;73.21
498;BME280;39559;48.630;9.162;2023-06-22T11:26:48;97229.56;;;28.36;74.52
498;BME280;39559;48.630;9.162;2023-06-22T11:29:13;97223.56;;;28.48;73.92
498;BME280;39559;48.630;9.162;2023-06-22T11:31:39;97227.00;;;28.57;73.59
498;BME280;39559;48.630;9.162;2023-06-22T11:34:04;97202.94;;;28.57;70.58
498;BME280;39559;48.630;9.162;2023-06-22T11:36:30;97200.16;;;28.80;72.05
498;BME280;39559;48.630;9.162;2023-06-22T11:38:58;97198.03;;;28.76;70.68
498;BME280;39559;48.630;9.162;2023-06-22T11:41:24;97196.22;;;28.61;66.14
498;BME280;39559;48.630;9.162;2023-06-22T11:45:53;97213.63;;;28.72;68.54
498;BME280;39559;48.630;9.162;2023-06-22T11:48:18;97225.53;;;28.55;70.01
498;BME280;39559;48.630;9.162;2023-06-22T11:50:44;97229.94;;;28.62;67.38
498;BME280;39559;48.630;9.162;2023-06-22T11:53:09;97245.16;;;28.62;66.37
498;BME280;39559;48.630;9.162;2023-06-22T11:55:35;97240.00;;;28.60;65.61
498;BME280;39559;48.630;9.162;2023-06-22T11:58:00;97221.19;;;28.39;69.30
498;BME280;39559;48.630;9.162;2023-06-22T12:00:29;97210.38;;;28.47;72.06
498;BME280;39559;48.630;9.162;2023-06-22T12:02:55;97208.75;;;28.31;71.25
498;BME280;39559;48.630;9.162;2023-06-22T12:05:21;97209.75;;;28.15;76.12
498;BME280;39559;48.630;9.162;2023-06-22T12:09:44;97201.47;;;28.10;76.41
498;BME280;39559;48.630;9.162;2023-06-22T12:12:09;97208.75;;;28.16;78.48
498;BME280;39559;48.630;9.162;2023-06-22T12:14:35;97215.91;;;28.30;74.35
498;BME280;39559;48.630;9.162;2023-06-22T12:17:01;97217.88;;;28.22;72.32
498;BME280;39559;48.630;9.162;2023-06-22T12:19:26;97208.38;;;28.34;68.75
498;BME280;39559;48.630;9.162;2023-06-22T12:21:52;97198.13;;;28.38;66.44
498;BME280;39559;48.630;9.162;2023-06-22T12:24:17;97210.69;;;28.22;70.70
498;BME280;39559;48.630;9.162;2023-06-22T12:26:43;97211.78;;;28.13;76.58
498;BME280;39559;48.630;9.162;2023-06-22T12:29:09;97217.59;;;28.31;73.52
498;BME280;39559;48.630;9.162;2023-06-22T12:33:38;97250.84;;;28.29;74.24
498;BME280;39559;48.630;9.162;2023-06-22T12:36:03;97257.53;;;28.40;75.03
498;BME280;39559;48.630;9.162;2023-06-22T12:38:35;97258.56;;;28.24;75.99
498;BME280;39559;48.630;9.162;2023-06-22T12:41:01;97252.47;;;28.00;76.63
498;BME280;39559;48.630;9.162;2023-06-22T12:43:26;97259.03;;;27.89;77.83
498;BME280;39559;48.630;9.162;2023-06-22T12:45:52;97263.97;;;27.77;78.36
498;BME280;39559;48.630;9.162;2023-06-22T12:48:18;97258.34;;;27.95;76.49
498;BME280;39559;48.630;9.162;2023-06-22T12:50:44;97254.97;;;28.31;75.13
498;BME280;39559;48.630;9.162;2023-06-22T12:53:10;97257.19;;;28.28;72.97
498;BME280;39559;48.630;9.162;2023-06-22T12:57:31;97242.38;;;28.25;76.74
498;BME280;39559;48.630;9.162;2023-06-22T12:59:56;97239.03;;;28.23;73.96
498;BME280;39559;48.630;9.162;2023-06-22T13:02:23;97241.59;;;28.02;82.07
498;BME280;39559;48.630;9.162;2023-06-22T13:04:49;97226.69;;;27.92;76.50
498;BME280;39559;48.630;9.162;2023-06-22T13:07:14;97230.66;;;27.97;77.39
498;BME280;39559;48.630;9.162;2023-06-22T13:09:40;97228.25;;;28.02;77.27
498;BME280;39559;48.630;9.162;2023-06-22T13:12:06;97213.25;;;28.01;75.44
498;BME280;39559;48.630;9.162;2023-06-22T13:14:32;97202.84;;;28.06;75.81
498;BME280;39559;48.630;9.162;2023-06-22T13:16:57;97202.50;;;28.09;74.44
498;BME280;39559;48.630;9.162;2023-06-22T13:21:24;97199.44;;;28.12;74.00
498;BME280;39559;48.630;9.162;2023-06-22T13:23:49;97200.81;;;28.08;73.61
498;BME280;39559;48.630;9.162;2023-06-22T13:26:15;97193.09;;;28.13;73.81
498;BME280;39559;48.630;9.162;2023-06-22T13:28:40;97199.16;;;28.37;74.83
498;BME280;39559;48.630;9.162;2023-06-22T13:31:06;97201.84;;;28.22;72.98
498;BME280;39559;48.630;9.162;2023-06-22T13:33:31;97201.19;;;28.34;73.39
498;BME280;39559;48.630;9.162;2023-06-22T13:35:57;97197.78;;;28.41;73.96
498;BME280;39559;48.630;9.162;2023-06-22T13:38:23;97204.97;;;28.40;73.15
498;BME280;39559;48.630;9.162;2023-06-22T13:40:49;97201.91;;;28.43;73.94
498;BME280;39559;48.630;9.162;2023-06-22T13:45:24;97193.81;;;28.66;77.00
498;BME280;39559;48.630;9.162;2023-06-22T13:47:50;97187.25;;;28.84;75.63
498;BME280;39559;48.630;9.162;2023-06-22T13:50:15;97189.59;;;28.94;75.83
498;BME280;39559;48.630;9.162;2023-06-22T13:52:41;97173.25;;;28.82;71.97
498;BME280;39559;48.630;9.162;2023-06-22T13:55:08;97180.41;;;28.96;73.52
498;BME280;39559;48.630;9.162;2023-06-22T13:57:42;97169.44;;;29.13;73.63
498;BME280;39559;48.630;9.162;2023-06-22T14:00:08;97161.56;;;29.26;75.08
498;BME280;39559;48.630;9.162;2023-06-22T14:02:34;97156.22;;;29.26;74.41
498;BME280;39559;48.630;9.162;2023-06-22T14:05:00;97156.34;;;29.39;74.92
498;BME280;39559;48.630;9.162;2023-06-22T14:09:10;97136.25;;;29.22;71.83
498;BME280;39559;48.630;9.162;2023-06-22T14:11:35;97130.25;;;29.20;69.95
498;BME280;39559;48.630;9.162;2023-06-22T14:14:01;97130.28;;;29.48;69.09
498;BME280;39559;48.630;9.162;2023-06-22T14:16:26;97135.53;;;29.63;70.38
498;BME280;39559;48.630;9.162;2023-06-22T14:18:52;97124.19;;;29.33;77.69
498;BME280;39559;48.630;9.162;2023-06-22T14:21:17;97124.00;;;29.13;74.49
498;BME280;39559;48.630;9.162;2023-06-22T14:23:44;97131.06;;;28.99;74.80
498;BME280;39559;48.630;9.162;2023-06-22T14:26:15;97127.97;;;29.17;74.67